Time;durP1;ratioP1;P1;durP2;ratioP2;P2;SDS_P1;SDS_P2;PMS_P1;PMS_P2;Temp;Humidity;BMP_temperature;BMP_pressure;BME280_temperature;BME280_humidity;BME280_pressure;Samples;Min_cycle;Max_cycle;Signal;HPM_P1;HPM_P2
2022/12/19 00:00:06;;;;;;;42.60;21.27;;;-4.10;1.00;;;;;;6257716;28;20353;-50
2022/12/19 00:03:16;;;;;;;34.33;20.93;;;-4.10;1.00;;;;;;6255445;28;20261;-50
2022/12/19 00:06:20;;;;;;;42.50;22.67;;;-3.90;1.00;;;;;;6258187;28;20230;-53
2022/12/19 00:09:23;;;;;;;39.33;21.50;;;-4.00;1.00;;;;;;6256602;28;20294;-50
2022/12/19 00:12:28;;;;;;;32.93;20.27;;;-4.10;1.00;;;;;;6260144;28;20640;-49
2022/12/19 00:15:33;;;;;;;32.43;20.10;;;-4.00;1.00;;;;;;6261000;28;20234;-50
2022/12/19 00:18:36;;;;;;;34.20;20.60;;;-3.90;1.00;;;;;;6254007;28;20511;-49
2022/12/19 00:21:39;;;;;;;34.17;20.87;;;-3.90;1.00;;;;;;6260973;28;20234;-50
2022/12/19 00:24:42;;;;;;;34.40;20.27;;;-3.90;1.00;;;;;;6258080;28;20241;-51
2022/12/19 00:27:47;;;;;;;34.77;19.60;;;-3.90;1.00;;;;;;6251785;28;20233;-50
2022/12/19 00:30:50;;;;;;;31.10;19.43;;;-3.90;1.00;;;;;;6258099;28;20238;-51
2022/12/19 00:33:56;;;;;;;32.43;21.20;;;-3.90;1.00;;;;;;6250625;28;20230;-50
2022/12/19 00:36:59;;;;;;;34.87;20.20;;;-3.80;1.00;;;;;;6259872;28;20244;-52
2022/12/19 00:40:02;;;;;;;35.50;20.17;;;-3.70;1.00;;;;;;6261853;28;20240;-50
2022/12/19 00:43:07;;;;;;;32.20;19.50;;;-3.90;1.00;;;;;;6263409;28;20238;-50
2022/12/19 00:46:11;;;;;;;31.87;20.63;;;-3.80;1.00;;;;;;6263077;28;20381;-50
2022/12/19 00:49:15;;;;;;;29.83;18.57;;;-3.70;1.00;;;;;;6254913;28;20271;-50
2022/12/19 00:52:18;;;;;;;33.70;20.43;;;-3.70;1.00;;;;;;6263083;28;20242;-51
2022/12/19 00:55:21;;;;;;;33.10;20.47;;;-3.80;1.00;;;;;;6262118;28;20686;-50
2022/12/19 00:58:25;;;;;;;34.47;19.87;;;-3.70;1.00;;;;;;6257416;28;20270;-50
2022/12/19 01:01:31;;;;;;;30.03;19.47;;;-3.80;1.00;;;;;;6262624;28;20242;-50
2022/12/19 01:04:35;;;;;;;35.80;19.03;;;-3.70;1.00;;;;;;6255932;28;20237;-51
2022/12/19 01:07:43;;;;;;;30.37;18.30;;;-3.70;1.00;;;;;;6257074;28;20598;-50
2022/12/19 01:10:47;;;;;;;32.63;19.03;;;-3.60;1.00;;;;;;6275246;28;20739;-50
2022/12/19 01:13:50;;;;;;;31.40;19.67;;;-3.80;1.00;;;;;;6271017;28;20237;-51
2022/12/19 01:16:53;;;;;;;34.07;19.87;;;-3.70;1.00;;;;;;6261697;28;20705;-51
2022/12/19 01:19:56;;;;;;;30.73;19.50;;;-3.70;1.00;;;;;;6265475;28;20249;-50
2022/12/19 01:22:59;;;;;;;33.57;19.03;;;-3.50;1.00;;;;;;6262172;28;20240;-50
2022/12/19 01:26:02;;;;;;;28.00;17.37;;;-3.70;1.00;;;;;;6265934;28;20238;-51
2022/12/19 01:29:07;;;;;;;30.87;18.97;;;-3.60;1.00;;;;;;6256929;28;20249;-50
2022/12/19 01:32:10;;;;;;;28.93;18.70;;;-3.70;1.00;;;;;;6265722;28;20230;-51
2022/12/19 01:35:13;;;;;;;34.33;19.77;;;-3.90;1.00;;;;;;6265407;28;20230;-51
2022/12/19 01:38:23;;;;;;;32.60;18.10;;;-3.60;1.00;;;;;;6261819;28;20253;-52
2022/12/19 01:41:26;;;;;;;32.57;19.37;;;-3.60;1.00;;;;;;6264679;28;20234;-50
2022/12/19 01:44:31;;;;;;;27.80;18.80;;;-3.70;1.00;;;;;;6263779;28;20257;-50
2022/12/19 01:47:40;;;;;;;32.30;19.40;;;-3.60;1.00;;;;;;6242207;28;20238;-50
2022/12/19 01:50:52;;;;;;;30.43;19.20;;;-3.50;1.00;;;;;;6240467;28;20227;-50
2022/12/19 01:54:07;;;;;;;27.57;17.43;;;-3.50;1.00;;;;;;6238398;28;20406;-51
2022/12/19 01:57:13;;;;;;;31.50;18.37;;;-3.40;1.00;;;;;;6243452;28;20242;-52
2022/12/19 02:00:18;;;;;;;33.43;18.60;;;-3.60;1.00;;;;;;6234349;28;20746;-51
2022/12/19 02:03:28;;;;;;;37.30;19.40;;;-3.60;1.00;;;;;;6237756;28;20235;-50
2022/12/19 02:06:33;;;;;;;33.13;19.50;;;-3.70;1.00;;;;;;6236808;28;20584;-51
2022/12/19 02:09:37;;;;;;;30.87;18.37;;;-3.80;1.00;;;;;;6239235;28;20467;-50
2022/12/19 02:12:43;;;;;;;28.90;18.20;;;-3.50;1.00;;;;;;6235794;28;20238;-50
2022/12/19 02:15:56;;;;;;;31.07;19.00;;;-3.30;1.00;;;;;;6239373;28;20245;-50
2022/12/19 02:19:08;;;;;;;29.13;18.10;;;-3.50;1.00;;;;;;6259432;28;20241;-54
2022/12/19 02:22:22;;;;;;;30.50;18.13;;;-3.40;1.00;;;;;;6267343;28;20226;-50
2022/12/19 02:25:56;;;;;;;31.13;18.93;;;-3.50;1.00;;;;;;6266790;28;20242;-53
2022/12/19 02:29:23;;;;;;;28.77;18.57;;;-3.50;1.00;;;;;;6255685;28;20627;-51
2022/12/19 02:32:33;;;;;;;33.93;19.77;;;-3.40;1.00;;;;;;6260353;28;20265;-51
2022/12/19 02:35:44;;;;;;;29.80;19.53;;;-3.20;1.00;;;;;;6263048;28;20245;-50
2022/12/19 02:38:53;;;;;;;31.40;19.87;;;-3.50;1.00;;;;;;6263460;28;20385;-51
2022/12/19 02:41:58;;;;;;;27.83;17.97;;;-3.60;1.00;;;;;;6259756;28;20230;-51
2022/12/19 02:45:05;;;;;;;32.60;18.97;;;-3.50;1.00;;;;;;6263556;28;20234;-50
2022/12/19 02:48:10;;;;;;;33.80;19.53;;;-3.50;1.00;;;;;;6264174;28;20256;-52
2022/12/19 02:51:18;;;;;;;34.03;19.67;;;-3.60;1.00;;;;;;6262296;28;20595;-50
2022/12/19 02:54:21;;;;;;;31.00;18.83;;;-3.50;1.00;;;;;;6243976;28;20357;-51
2022/12/19 02:57:29;;;;;;;32.07;19.57;;;-3.50;1.00;;;;;;6251689;28;20250;-55
2022/12/19 03:00:41;;;;;;;35.47;20.90;;;-3.60;1.00;;;;;;6227069;28;20309;-51
2022/12/19 03:03:55;;;;;;;33.97;19.97;;;-3.40;1.00;;;;;;6235049;28;20239;-50
2022/12/19 03:07:02;;;;;;;33.13;19.83;;;-3.50;1.00;;;;;;6239399;28;20688;-50
2022/12/19 03:10:16;;;;;;;32.30;20.10;;;-3.30;1.00;;;;;;6243719;28;20235;-54
2022/12/19 03:13:26;;;;;;;31.57;19.07;;;-3.50;1.00;;;;;;6243594;28;20230;-50
2022/12/19 03:16:29;;;;;;;32.40;20.60;;;-3.60;1.00;;;;;;6238965;28;20235;-50
2022/12/19 03:19:34;;;;;;;31.47;20.67;;;-3.50;1.00;;;;;;6233416;28;20242;-50
2022/12/19 03:22:37;;;;;;;36.23;20.97;;;-3.30;1.00;;;;;;6240838;28;20231;-51
2022/12/19 03:25:43;;;;;;;33.73;20.10;;;-3.50;1.00;;;;;;6239690;28;20238;-50
2022/12/19 03:28:50;;;;;;;34.20;20.53;;;-3.50;1.00;;;;;;6244138;28;20268;-48
2022/12/19 03:31:55;;;;;;;40.60;21.33;;;-3.20;1.00;;;;;;6239927;28;20232;-51
2022/12/19 03:35:04;;;;;;;31.90;20.40;;;-3.40;1.00;;;;;;6238452;28;20239;-51
2022/12/19 03:38:10;;;;;;;31.13;21.47;;;-3.40;1.00;;;;;;6229082;28;20235;-50
2022/12/19 03:41:16;;;;;;;36.17;21.00;;;-3.20;1.00;;;;;;6240868;28;20476;-51
2022/12/19 03:44:21;;;;;;;37.57;21.17;;;-3.50;1.00;;;;;;6237853;28;20245;-51
2022/12/19 03:47:30;;;;;;;39.57;21.60;;;-3.40;1.00;;;;;;6243357;28;20250;-50
2022/12/19 03:50:48;;;;;;;35.27;20.70;;;-3.50;1.00;;;;;;6233137;28;20238;-51
2022/12/19 03:53:59;;;;;;;31.00;20.13;;;-3.40;1.00;;;;;;6250254;28;20238;-50
2022/12/19 03:57:07;;;;;;;38.67;21.50;;;-3.30;1.00;;;;;;6234957;28;20249;-51
2022/12/19 04:00:13;;;;;;;37.83;21.83;;;-3.20;1.00;;;;;;6237278;28;20234;-50
2022/12/19 04:03:18;;;;;;;36.97;21.77;;;-3.30;1.00;;;;;;6227579;28;20230;-50
2022/12/19 04:06:23;;;;;;;37.83;21.70;;;-3.30;1.00;;;;;;6238695;28;20636;-51
2022/12/19 04:09:26;;;;;;;34.70;21.10;;;-3.00;1.00;;;;;;6237018;28;20605;-52
2022/12/19 04:12:36;;;;;;;32.20;20.83;;;-3.30;1.00;;;;;;6237983;28;20370;-51
2022/12/19 04:15:45;;;;;;;33.07;20.77;;;-3.00;1.00;;;;;;6237928;28;20231;-51
2022/12/19 04:18:52;;;;;;;34.93;21.97;;;-3.00;1.00;;;;;;6234367;28;20239;-51
2022/12/19 04:22:06;;;;;;;39.13;22.10;;;-3.30;1.00;;;;;;6234392;28;20230;-51
2022/12/19 04:25:13;;;;;;;35.63;21.60;;;-3.30;1.00;;;;;;6234365;28;20719;-50
2022/12/19 04:28:21;;;;;;;35.87;21.70;;;-3.20;1.00;;;;;;6230209;28;20291;-50
2022/12/19 04:31:24;;;;;;;36.50;21.17;;;-3.00;1.00;;;;;;6224550;28;20901;-50
2022/12/19 04:34:27;;;;;;;37.67;22.97;;;-2.90;1.00;;;;;;6235707;28;20242;-50
2022/12/19 04:37:32;;;;;;;36.63;22.33;;;-3.00;1.00;;;;;;6245547;28;20250;-51
2022/12/19 04:40:35;;;;;;;35.43;20.70;;;-3.30;1.00;;;;;;6245984;28;20231;-48
2022/12/19 04:43:43;;;;;;;38.27;21.83;;;-3.30;1.00;;;;;;6243734;28;20426;-52
2022/12/19 04:46:46;;;;;;;39.10;22.50;;;-3.20;1.00;;;;;;6241142;28;20241;-52
2022/12/19 04:49:49;;;;;;;36.87;21.93;;;-3.20;1.00;;;;;;6238934;28;20234;-51
2022/12/19 04:52:53;;;;;;;36.80;21.90;;;-3.10;1.00;;;;;;6239659;28;20699;-51
2022/12/19 04:56:02;;;;;;;37.83;21.60;;;-3.20;1.00;;;;;;6225377;28;20259;-50
2022/12/19 04:59:05;;;;;;;36.83;20.87;;;-3.00;1.00;;;;;;6232058;28;20381;-54
2022/12/19 05:02:08;;;;;;;38.83;22.13;;;-2.80;1.00;;;;;;6228665;28;20237;-51
2022/12/19 05:05:11;;;;;;;37.80;22.27;;;-2.80;1.00;;;;;;6221443;28;20235;-50
2022/12/19 05:08:15;;;;;;;36.20;23.20;;;-2.90;1.00;;;;;;6234836;28;20339;-50
2022/12/19 05:11:18;;;;;;;34.97;21.93;;;-2.80;1.00;;;;;;6230547;28;20235;-50
2022/12/19 05:14:22;;;;;;;37.03;22.00;;;-3.20;1.00;;;;;;6233851;28;20745;-50
2022/12/19 05:17:25;;;;;;;38.63;22.53;;;-3.20;1.00;;;;;;6234117;28;20243;-50
2022/12/19 05:20:28;;;;;;;40.03;22.13;;;-3.10;1.00;;;;;;6232002;28;20235;-50
2022/12/19 05:23:32;;;;;;;34.67;22.37;;;-2.90;1.00;;;;;;6235904;28;20285;-51
2022/12/19 05:26:35;;;;;;;35.27;22.13;;;-3.20;1.00;;;;;;6232398;28;20235;-51
2022/12/19 05:29:39;;;;;;;35.13;21.37;;;-3.10;1.00;;;;;;6227690;28;20238;-50
2022/12/19 05:32:42;;;;;;;35.10;21.53;;;-3.20;1.00;;;;;;6243677;28;20226;-51
2022/12/19 05:35:45;;;;;;;38.97;21.77;;;-3.10;1.00;;;;;;6256780;28;20618;-50
2022/12/19 05:38:49;;;;;;;36.83;22.00;;;-3.20;1.00;;;;;;6266414;28;20404;-51
2022/12/19 05:41:53;;;;;;;32.23;20.67;;;-2.80;1.00;;;;;;6254957;28;20238;-52
2022/12/19 05:44:56;;;;;;;38.40;21.90;;;-3.30;1.00;;;;;;6255425;28;20234;-50
2022/12/19 05:47:59;;;;;;;32.73;19.97;;;-3.00;1.00;;;;;;6270116;28;20230;-51
2022/12/19 05:51:04;;;;;;;39.13;21.20;;;-2.70;1.00;;;;;;6266393;28;20297;-51
2022/12/19 05:54:08;;;;;;;36.07;21.17;;;-2.80;1.00;;;;;;6262049;28;20238;-50
2022/12/19 05:57:11;;;;;;;38.13;20.87;;;-2.80;1.00;;;;;;6262038;28;20249;-53
2022/12/19 06:00:15;;;;;;;37.90;21.80;;;-3.10;1.00;;;;;;6257847;28;20238;-50
2022/12/19 06:03:18;;;;;;;35.57;20.80;;;-2.80;1.00;;;;;;6260288;28;20230;-51
2022/12/19 06:06:25;;;;;;;38.83;20.97;;;-3.10;1.00;;;;;;6260166;28;20321;-51
2022/12/19 06:09:30;;;;;;;34.77;20.03;;;-2.70;1.00;;;;;;6252173;28;20578;-52
2022/12/19 06:12:33;;;;;;;34.43;21.93;;;-2.80;1.00;;;;;;6272787;28;20234;-51
2022/12/19 06:15:36;;;;;;;34.17;21.10;;;-2.70;1.00;;;;;;6272052;28;20615;-51
2022/12/19 06:18:40;;;;;;;36.73;21.03;;;-2.80;1.00;;;;;;6257147;28;20253;-50
2022/12/19 06:21:47;;;;;;;39.67;22.97;;;-2.90;1.00;;;;;;6254072;28;20225;-51
2022/12/19 06:24:52;;;;;;;41.10;21.27;;;-2.70;1.00;;;;;;6265956;28;20230;-51
2022/12/19 06:27:54;;;;;;;30.90;21.00;;;-2.80;1.00;;;;;;6253862;28;20626;-50
2022/12/19 06:30:58;;;;;;;35.53;20.87;;;-2.70;1.00;;;;;;6260382;28;20241;-55
2022/12/19 06:34:01;;;;;;;34.80;20.93;;;-2.70;1.00;;;;;;6251575;28;20324;-51
2022/12/19 06:37:04;;;;;;;34.83;20.73;;;-2.90;1.00;;;;;;6255614;28;20229;-51
2022/12/19 06:42:21;;;;;;;35.27;20.90;;;-2.70;1.00;;;;;;6257240;28;20238;-51
2022/12/19 06:43:34;;;;;;;33.03;19.83;;;-2.50;1.00;;;;;;6259676;28;20234;-50
2022/12/19 06:46:37;;;;;;;32.17;20.30;;;-2.50;1.00;;;;;;6260080;28;20319;-52
2022/12/19 06:49:40;;;;;;;38.67;20.47;;;-2.60;1.00;;;;;;6262938;28;20325;-52
2022/12/19 06:52:44;;;;;;;32.77;20.87;;;-2.60;1.00;;;;;;6263028;28;20241;-51
2022/12/19 06:55:50;;;;;;;32.37;20.03;;;-2.40;1.00;;;;;;6257420;28;20245;-51
2022/12/19 06:58:53;;;;;;;37.97;21.20;;;-2.60;1.00;;;;;;6257927;28;20616;-51
2022/12/19 07:02:00;;;;;;;36.50;21.00;;;-2.30;1.00;;;;;;6255315;28;20263;-51
2022/12/19 07:05:07;;;;;;;38.83;21.10;;;-2.20;1.00;;;;;;6258149;28;20230;-51
2022/12/19 07:08:11;;;;;;;30.90;19.57;;;-2.40;1.00;;;;;;6262286;28;20253;-51
2022/12/19 07:11:15;;;;;;;33.63;20.30;;;-2.40;1.00;;;;;;6263062;28;20245;-50
2022/12/19 07:14:18;;;;;;;30.70;20.20;;;-2.50;1.00;;;;;;6259688;28;20226;-52
2022/12/19 07:17:24;;;;;;;36.30;20.73;;;-2.30;1.00;;;;;;6262506;28;20234;-51
2022/12/19 07:20:29;;;;;;;35.13;20.93;;;-2.30;1.00;;;;;;6259856;28;20238;-51
2022/12/19 07:23:32;;;;;;;31.40;19.40;;;-2.30;1.00;;;;;;6262039;28;20774;-50
2022/12/19 07:26:36;;;;;;;29.70;19.83;;;-2.10;1.00;;;;;;6262835;28;20241;-51
2022/12/19 07:29:39;;;;;;;33.77;19.20;;;-2.20;1.00;;;;;;6259336;28;20279;-51
2022/12/19 07:32:42;;;;;;;38.70;21.20;;;-2.20;1.00;;;;;;6256140;28;20623;-52
2022/12/19 07:35:45;;;;;;;30.67;19.67;;;-1.90;1.00;;;;;;6268373;28;20234;-51
2022/12/19 07:38:49;;;;;;;35.23;20.80;;;-2.20;1.00;;;;;;6260413;28;20238;-51
2022/12/19 07:41:53;;;;;;;29.83;18.73;;;-1.80;1.00;;;;;;6264557;28;20245;-52
2022/12/19 07:44:56;;;;;;;32.17;18.97;;;-1.90;1.00;;;;;;6263160;28;20563;-51
2022/12/19 07:48:00;;;;;;;35.13;20.13;;;-1.90;1.00;;;;;;6261234;28;20248;-51
2022/12/19 07:51:04;;;;;;;32.37;20.03;;;-1.80;1.00;;;;;;6263059;28;20245;-51
2022/12/19 07:54:07;;;;;;;28.17;17.63;;;-1.90;1.00;;;;;;6268001;28;20994;-55
2022/12/19 07:57:11;;;;;;;30.83;19.13;;;-1.80;1.00;;;;;;6255061;28;20250;-56
2022/12/19 08:00:15;;;;;;;33.10;20.50;;;-1.60;1.00;;;;;;6259397;28;20238;-51
2022/12/19 08:03:18;;;;;;;28.93;19.37;;;-1.60;1.00;;;;;;6258336;28;20238;-51
2022/12/19 08:06:22;;;;;;;32.10;19.83;;;-1.60;1.00;;;;;;6258314;28;20240;-51
2022/12/19 08:09:26;;;;;;;33.50;19.53;;;-1.70;1.00;;;;;;6261275;28;20245;-52
2022/12/19 08:12:32;;;;;;;32.87;19.27;;;-1.60;1.00;;;;;;6271576;28;20230;-52
2022/12/19 08:15:35;;;;;;;33.87;19.80;;;-1.50;1.00;;;;;;6261809;28;20234;-51
2022/12/19 08:18:39;;;;;;;33.00;19.13;;;-1.40;1.00;;;;;;6265345;28;20242;-51
2022/12/19 08:21:42;;;;;;;30.83;18.93;;;-1.50;1.00;;;;;;6263984;28;20241;-51
2022/12/19 08:24:45;;;;;;;32.70;19.80;;;-1.20;1.00;;;;;;6264134;28;20268;-52
2022/12/19 08:27:49;;;;;;;35.00;20.03;;;-1.50;1.00;;;;;;6251300;28;20276;-52
2022/12/19 08:30:52;;;;;;;31.07;19.77;;;-1.30;1.00;;;;;;6237657;28;20742;-53
2022/12/19 08:33:56;;;;;;;33.80;19.63;;;-1.10;1.00;;;;;;6229674;28;20235;-51
2022/12/19 08:36:59;;;;;;;29.07;18.27;;;-1.30;1.00;;;;;;6235630;28;20245;-53
2022/12/19 08:40:02;;;;;;;31.43;18.97;;;-1.40;1.00;;;;;;6235497;28;20642;-51
2022/12/19 08:43:07;;;;;;;32.67;18.90;;;-1.00;1.00;;;;;;6236805;28;20761;-53
2022/12/19 08:46:10;;;;;;;27.10;18.27;;;-0.90;1.00;;;;;;6236266;28;20237;-53
2022/12/19 08:49:13;;;;;;;31.47;19.03;;;-0.90;1.00;;;;;;6235906;28;20357;-52
2022/12/19 08:52:17;;;;;;;25.70;17.13;;;-1.00;1.00;;;;;;6233994;28;20250;-51
2022/12/19 08:55:20;;;;;;;30.37;18.00;;;-0.80;1.00;;;;;;6227776;28;20235;-54
2022/12/19 08:58:25;;;;;;;29.93;18.97;;;-0.80;1.00;;;;;;6238891;28;20652;-53
2022/12/19 09:01:28;;;;;;;33.53;20.30;;;-0.90;1.00;;;;;;6241567;28;20238;-52
2022/12/19 09:04:31;;;;;;;31.47;18.77;;;-0.90;1.00;;;;;;6236415;28;20659;-53
2022/12/19 09:07:55;;;;;;;29.73;18.20;;;-0.70;1.00;;;;;;6239615;28;20242;-55
2022/12/19 09:10:59;;;;;;;32.13;19.00;;;-0.70;1.00;;;;;;6236049;28;20228;-52
2022/12/19 09:14:04;;;;;;;29.63;19.13;;;-0.60;1.00;;;;;;6258460;28;20234;-52
2022/12/19 09:17:07;;;;;;;36.67;19.07;;;-0.60;1.00;;;;;;6260964;28;20702;-56
2022/12/19 09:20:11;;;;;;;30.57;18.57;;;-0.60;1.00;;;;;;6261071;28;21071;-52
2022/12/19 09:23:20;;;;;;;34.87;18.70;;;-0.30;1.00;;;;;;6253773;28;20222;-53
2022/12/19 09:26:25;;;;;;;31.90;18.93;;;-0.20;1.00;;;;;;6266159;28;20347;-52
2022/12/19 09:29:30;;;;;;;32.77;19.03;;;-0.30;1.00;;;;;;6262731;28;20238;-52
2022/12/19 09:32:37;;;;;;;33.13;18.83;;;-0.40;1.00;;;;;;6262415;28;20325;-52
2022/12/19 09:35:50;;;;;;;36.47;19.50;;;-0.10;1.00;;;;;;6264499;28;20245;-51
2022/12/19 09:38:54;;;;;;;29.70;19.03;;;0.10;1.00;;;;;;6257414;28;20238;-52
2022/12/19 09:42:14;;;;;;;32.10;18.77;;;0.00;1.00;;;;;;6256921;28;20222;-51
2022/12/19 09:45:33;;;;;;;29.77;19.10;;;0.00;1.00;;;;;;6262816;28;20237;-51
2022/12/19 09:48:36;;;;;;;30.73;17.60;;;0.00;1.00;;;;;;6261337;28;20723;-54
2022/12/19 09:51:44;;;;;;;34.60;19.87;;;0.00;1.00;;;;;;6258696;28;20614;-53
2022/12/19 09:54:51;;;;;;;35.73;19.17;;;0.10;1.00;;;;;;6260166;28;20615;-51
2022/12/19 09:58:01;;;;;;;32.87;20.87;;;0.10;1.00;;;;;;6264226;28;20237;-52
2022/12/19 10:01:18;;;;;;;30.73;19.43;;;0.10;1.00;;;;;;6257986;28;20310;-52
2022/12/19 10:04:24;;;;;;;35.53;18.93;;;0.40;1.00;;;;;;6255244;28;20284;-53
2022/12/19 10:07:29;;;;;;;32.13;19.53;;;0.40;1.00;;;;;;6263476;28;20234;-57
2022/12/19 10:11:04;;;;;;;32.40;19.27;;;0.30;1.00;;;;;;6257784;28;20241;-51
2022/12/19 10:14:40;;;;;;;28.10;18.30;;;0.20;1.00;;;;;;6262655;28;20245;-52
2022/12/19 10:18:09;;;;;;;30.97;18.73;;;0.60;1.00;;;;;;6256434;28;20398;-52
2022/12/19 10:21:22;;;;;;;28.13;18.23;;;0.60;1.00;;;;;;6253413;28;20228;-52
2022/12/19 10:25:01;;;;;;;30.63;19.33;;;0.90;1.00;;;;;;6263567;28;20234;-52
2022/12/19 10:28:24;;;;;;;32.60;18.83;;;0.80;1.00;;;;;;6248920;28;20719;-52
2022/12/19 10:31:33;;;;;;;30.97;19.07;;;0.80;1.00;;;;;;6243410;28;20248;-52
2022/12/19 10:34:42;;;;;;;24.47;17.57;;;1.10;1.00;;;;;;6242961;28;20235;-51
2022/12/19 10:37:51;;;;;;;34.20;18.40;;;1.20;1.00;;;;;;6238703;28;20235;-51
2022/12/19 10:41:03;;;;;;;27.03;18.63;;;1.10;1.00;;;;;;6238821;28;20246;-51
2022/12/19 10:44:09;;;;;;;47.70;19.37;;;1.40;1.00;;;;;;6239471;28;20238;-55
2022/12/19 10:47:16;;;;;;;34.97;20.77;;;1.10;1.00;;;;;;6261947;28;20238;-50
2022/12/19 10:50:24;;;;;;;28.10;18.57;;;1.60;1.00;;;;;;6248049;28;20237;-51
2022/12/19 10:53:28;;;;;;;29.93;19.47;;;1.60;1.00;;;;;;6234883;28;20235;-51
2022/12/19 10:56:32;;;;;;;36.83;20.30;;;1.50;1.00;;;;;;6237821;28;20376;-53
2022/12/19 10:59:39;;;;;;;33.53;20.97;;;1.50;1.00;;;;;;6238236;28;20765;-52
2022/12/19 11:02:44;;;;;;;30.00;19.33;;;1.90;1.00;;;;;;6233229;28;20224;-52
2022/12/19 11:05:51;;;;;;;29.93;19.43;;;1.60;1.00;;;;;;6238095;28;20238;-52
2022/12/19 11:09:20;;;;;;;32.80;20.50;;;1.70;1.00;;;;;;6233250;28;20250;-52
2022/12/19 11:12:25;;;;;;;28.10;18.73;;;2.00;1.00;;;;;;6237931;28;20400;-53
2022/12/19 11:15:50;;;;;;;35.50;20.40;;;1.80;1.00;;;;;;6238680;28;20230;-51
2022/12/19 11:19:21;;;;;;;28.00;19.10;;;1.70;1.00;;;;;;6224626;28;20762;-52
2022/12/19 11:22:53;;;;;;;29.90;18.93;;;1.90;1.00;;;;;;6235842;28;20757;-52
2022/12/19 11:26:28;;;;;;;33.33;20.17;;;1.70;1.00;;;;;;6226535;28;20465;-53
2022/12/19 11:29:52;;;;;;;32.03;19.10;;;1.90;1.00;;;;;;6237291;28;20253;-57
2022/12/19 11:33:16;;;;;;;32.37;19.30;;;1.70;1.00;;;;;;6234414;28;21904;-53
2022/12/19 11:36:30;;;;;;;31.57;19.83;;;1.60;1.00;;;;;;6241842;28;20235;-52
2022/12/19 11:39:41;;;;;;;30.77;20.07;;;1.50;1.00;;;;;;6234269;28;20269;-53
2022/12/19 11:42:51;;;;;;;29.77;18.97;;;1.50;1.00;;;;;;6235077;28;20238;-51
2022/12/19 11:46:25;;;;;;;30.53;20.10;;;1.80;1.00;;;;;;6231765;28;20606;-51
2022/12/19 11:49:33;;;;;;;32.67;20.50;;;1.70;1.00;;;;;;6236874;28;20239;-52
2022/12/19 11:52:43;;;;;;;28.30;20.27;;;1.80;1.00;;;;;;6235599;28;20604;-52
2022/12/19 11:56:10;;;;;;;36.37;21.43;;;1.80;1.00;;;;;;6229600;28;20645;-52
2022/12/19 11:59:20;;;;;;;33.77;20.53;;;1.70;1.00;;;;;;6236382;28;20235;-53
2022/12/19 12:02:50;;;;;;;30.30;20.77;;;1.70;1.00;;;;;;6255581;28;20234;-52
2022/12/19 12:05:55;;;;;;;30.63;21.03;;;1.50;1.00;;;;;;6259288;28;20253;-52
2022/12/19 12:09:02;;;;;;;30.57;19.87;;;1.60;1.00;;;;;;6245127;28;20246;-53
2022/12/19 12:12:30;;;;;;;33.63;21.27;;;1.70;1.00;;;;;;6261410;28;20248;-51
2022/12/19 12:16:00;;;;;;;30.53;20.43;;;1.70;1.00;;;;;;6271607;28;20240;-51
2022/12/19 12:19:37;;;;;;;31.30;19.53;;;1.70;1.00;;;;;;6263200;28;20698;-54
2022/12/19 12:23:15;;;;;;;32.77;21.00;;;1.60;1.00;;;;;;6262560;28;20238;-55
2022/12/19 12:26:47;;;;;;;33.07;21.63;;;1.60;1.00;;;;;;6263671;28;20234;-52
2022/12/19 12:30:16;;;;;;;30.47;20.23;;;1.60;1.00;;;;;;6264739;28;20252;-51
2022/12/19 12:33:55;;;;;;;37.33;20.83;;;1.80;1.00;;;;;;6266091;28;20263;-52
2022/12/19 12:37:31;;;;;;;33.10;20.63;;;1.70;1.00;;;;;;6254045;28;20230;-52
2022/12/19 12:41:04;;;;;;;31.13;19.03;;;1.80;1.00;;;;;;6261130;28;20230;-51
2022/12/19 12:44:09;;;;;;;33.67;20.43;;;1.60;1.00;;;;;;6265310;28;20450;-52
2022/12/19 12:47:19;;;;;;;28.27;19.90;;;1.60;1.00;;;;;;6264029;28;20237;-50
2022/12/19 12:50:24;;;;;;;34.90;19.33;;;1.70;1.00;;;;;;6260363;28;20703;-52
2022/12/19 12:53:32;;;;;;;29.20;19.17;;;1.80;1.00;;;;;;6265245;28;20234;-51
2022/12/19 12:56:36;;;;;;;30.67;19.80;;;1.70;1.00;;;;;;6266287;28;20234;-52
2022/12/19 12:59:45;;;;;;;36.60;20.57;;;1.90;1.00;;;;;;6264923;28;20407;-52
2022/12/19 13:02:54;;;;;;;34.23;21.43;;;1.70;1.00;;;;;;6262145;28;20719;-52
2022/12/19 13:06:05;;;;;;;34.17;21.33;;;1.60;1.00;;;;;;6266829;28;20279;-53
2022/12/19 13:09:21;;;;;;;29.93;19.37;;;1.90;1.00;;;;;;6263189;28;20234;-53
2022/12/19 13:15:47;;;;;;;35.50;21.07;;;2.00;1.00;;;;;;6263015;28;20703;-52
2022/12/19 13:19:04;;;;;;;30.10;19.87;;;2.00;1.00;;;;;;6265040;28;20246;-55
2022/12/19 13:22:16;;;;;;;32.20;21.53;;;2.00;1.00;;;;;;6264221;28;20609;-50
2022/12/19 13:25:47;;;;;;;35.73;19.60;;;2.10;1.00;;;;;;6267279;28;20226;-52
2022/12/19 13:28:50;;;;;;;36.00;20.83;;;2.10;1.00;;;;;;6263019;28;20250;-53
2022/12/19 13:32:12;;;;;;;34.00;21.20;;;1.80;1.00;;;;;;6264280;28;20243;-52
2022/12/19 13:35:35;;;;;;;32.73;21.57;;;2.00;1.00;;;;;;6255629;28;20230;-52
2022/12/19 13:38:59;;;;;;;32.33;21.10;;;1.90;1.00;;;;;;6258714;28;20253;-53
2022/12/19 13:45:50;;;;;;;37.63;22.37;;;2.20;1.00;;;;;;6260605;28;20710;-51
2022/12/19 13:49:01;;;;;;;32.47;20.73;;;1.90;1.00;;;;;;6257437;28;20226;-51
2022/12/19 13:52:10;;;;;;;35.33;19.97;;;2.00;1.00;;;;;;6238197;28;20239;-52
2022/12/19 13:55:14;;;;;;;41.63;22.83;;;1.80;1.00;;;;;;6236037;28;20231;-52
2022/12/19 13:58:23;;;;;;;34.50;23.20;;;2.10;1.00;;;;;;6237885;28;20734;-53
2022/12/19 14:01:34;;;;;;;43.87;24.37;;;1.90;1.00;;;;;;6237654;28;20495;-52
2022/12/19 14:04:40;;;;;;;42.63;24.33;;;2.10;1.00;;;;;;6234949;28;20250;-51
2022/12/19 14:07:46;;;;;;;34.83;22.53;;;2.00;1.00;;;;;;6235945;28;20609;-53
2022/12/19 14:10:51;;;;;;;36.33;22.90;;;2.00;1.00;;;;;;6237684;28;20250;-52
2022/12/19 14:17:36;;;;;;;42.03;24.50;;;2.10;1.00;;;;;;6235273;28;20247;-52
2022/12/19 14:20:39;;;;;;;39.37;24.40;;;2.10;1.00;;;;;;6231732;28;20235;-52
2022/12/19 14:24:11;;;;;;;42.90;24.67;;;2.20;1.00;;;;;;6233795;28;20489;-54
2022/12/19 14:27:17;;;;;;;44.30;26.00;;;2.00;1.00;;;;;;6237205;28;20250;-52
2022/12/19 14:30:43;;;;;;;47.30;24.23;;;2.00;1.00;;;;;;6236282;28;20227;-52
2022/12/19 14:33:49;;;;;;;48.23;26.07;;;2.20;1.00;;;;;;6235042;28;20234;-54
2022/12/19 14:37:28;;;;;;;38.57;23.60;;;2.40;1.00;;;;;;6248405;28;20262;-52
2022/12/19 14:40:53;;;;;;;40.10;23.30;;;2.20;1.00;;;;;;6260808;28;20234;-52
2022/12/19 14:44:11;;;;;;;41.47;25.83;;;2.30;1.00;;;;;;6254117;28;20238;-53
2022/12/19 14:47:37;;;;;;;42.77;24.27;;;2.50;1.00;;;;;;6260663;28;20752;-52
2022/12/19 14:51:05;;;;;;;42.63;24.00;;;2.40;1.00;;;;;;6237255;28;20242;-52
2022/12/19 14:54:28;;;;;;;47.23;25.50;;;2.20;1.00;;;;;;6234524;28;20242;-51
2022/12/19 14:57:52;;;;;;;47.60;26.30;;;2.30;1.00;;;;;;6229416;28;20741;-52
2022/12/19 15:01:22;;;;;;;46.00;26.00;;;2.50;1.00;;;;;;6234438;28;20630;-54
2022/12/19 15:04:30;;;;;;;41.40;25.33;;;2.50;1.00;;;;;;6234889;28;20926;-53
2022/12/19 15:07:57;;;;;;;44.87;26.53;;;2.70;1.00;;;;;;6237924;28;20280;-52
2022/12/19 15:13:18;;;;;;;46.03;25.53;;;2.40;1.00;;;;;;6236627;28;20241;-52
2022/12/19 15:14:48;;;;;;;47.63;26.50;;;2.40;1.00;;;;;;6234946;28;20246;-52
2022/12/19 15:18:16;;;;;;;44.03;25.37;;;2.40;1.00;;;;;;6229363;28;20235;-53
2022/12/19 15:21:19;;;;;;;46.13;24.97;;;2.50;1.00;;;;;;6235223;28;20238;-52
2022/12/19 15:24:22;;;;;;;44.17;26.10;;;2.50;1.00;;;;;;6235799;28;20238;-53
2022/12/19 15:27:26;;;;;;;45.50;24.97;;;2.60;1.00;;;;;;6235374;28;20258;-53
2022/12/19 15:30:33;;;;;;;41.07;26.03;;;2.50;1.00;;;;;;6231077;28;20591;-53
2022/12/19 15:33:36;;;;;;;50.13;26.17;;;2.70;1.00;;;;;;6216417;28;20241;-54
2022/12/19 15:36:59;;;;;;;47.97;26.73;;;2.60;1.00;;;;;;6232767;28;20719;-53
2022/12/19 15:40:02;;;;;;;50.63;27.23;;;2.50;1.00;;;;;;6228452;28;20239;-53
2022/12/19 15:43:05;;;;;;;49.60;27.80;;;2.60;1.00;;;;;;6232721;28;20230;-53
2022/12/19 15:46:12;;;;;;;47.67;25.63;;;2.60;1.00;;;;;;6232829;28;20253;-52
2022/12/19 15:49:16;;;;;;;51.80;29.37;;;2.80;1.00;;;;;;6228463;28;20234;-53
2022/12/19 15:52:20;;;;;;;47.17;28.20;;;2.60;1.00;;;;;;6232543;28;20229;-50
2022/12/19 15:55:27;;;;;;;55.00;27.10;;;2.80;1.00;;;;;;6232646;28;20242;-52
2022/12/19 15:58:30;;;;;;;46.30;26.53;;;2.80;1.00;;;;;;6233015;28;20231;-52
2022/12/19 16:01:34;;;;;;;48.90;27.43;;;2.90;1.00;;;;;;6234827;28;20238;-52
2022/12/19 16:04:37;;;;;;;47.73;27.23;;;2.90;1.00;;;;;;6227438;28;20242;-52
2022/12/19 16:07:41;;;;;;;48.00;26.67;;;2.80;1.00;;;;;;6227028;28;20329;-52
2022/12/19 16:10:45;;;;;;;50.80;28.77;;;2.90;1.00;;;;;;6233138;28;20649;-52
2022/12/19 16:13:52;;;;;;;45.73;27.17;;;2.80;1.00;;;;;;6230782;28;20265;-51
2022/12/19 16:16:56;;;;;;;51.03;26.87;;;2.80;1.00;;;;;;6233311;28;20234;-51
2022/12/19 16:19:59;;;;;;;50.17;28.80;;;2.90;1.00;;;;;;6232588;28;20234;-51
2022/12/19 16:23:02;;;;;;;46.17;27.00;;;3.10;1.00;;;;;;6233827;28;20230;-51
2022/12/19 16:26:16;;;;;;;50.50;26.93;;;3.10;1.00;;;;;;6228101;28;20729;-52